Time;durP1;ratioP1;P1;durP2;ratioP2;P2;SDS_P1;SDS_P2;PMS_P1;PMS_P2;Temp;Humidity;BMP_temperature;BMP_pressure;BME280_temperature;BME280_humidity;BME280_pressure;Samples;Min_cycle;Max_cycle;Signal;HPM_P1;HPM_P2
2022/09/26 00:00:42;;;;;;;6.55;5.65;;;;;;;13.68;71.90;96165.69;6184411;23;20362;-78
2022/09/26 00:03:11;;;;;;;6.05;5.05;;;;;;;13.68;72.36;96164.88;6185202;23;20021;-77
2022/09/26 00:05:40;;;;;;;8.82;5.47;;;;;;;13.68;72.30;96175.38;6185717;23;20108;-78
2022/09/26 00:08:07;;;;;;;9.07;6.10;;;;;;;13.67;72.17;96171.16;6185157;23;20104;-78
2022/09/26 00:10:35;;;;;;;9.20;6.20;;;;;;;13.64;72.53;96169.72;6185260;23;20047;-77
2022/09/26 00:13:02;;;;;;;8.55;6.90;;;;;;;13.66;72.65;96164.28;6185373;23;20088;-77
2022/09/26 00:15:30;;;;;;;7.13;6.43;;;;;;;13.65;72.64;96167.94;6185478;23;20055;-77
2022/09/26 00:17:57;;;;;;;8.68;6.60;;;;;;;13.63;72.33;96160.28;6185179;23;20021;-77
2022/09/26 00:20:25;;;;;;;8.10;6.07;;;;;;;13.63;72.29;96160.28;6184321;23;20027;-78
2022/09/26 00:22:54;;;;;;;8.73;6.03;;;;;;;13.62;72.27;96157.88;6184470;23;20035;-77
2022/09/26 00:25:21;;;;;;;8.90;5.97;;;;;;;13.63;72.60;96162.09;6184317;23;20021;-77
2022/09/26 00:27:49;;;;;;;8.18;6.68;;;;;;;13.62;72.11;96150.78;6187068;23;20021;-77
2022/09/26 00:30:16;;;;;;;14.02;7.55;;;;;;;13.60;72.29;96151.03;6185174;23;20099;-77
2022/09/26 00:32:44;;;;;;;9.77;7.68;;;;;;;13.59;72.08;96151.22;6188068;23;20100;-77
2022/09/26 00:35:11;;;;;;;9.05;7.45;;;;;;;13.58;72.15;96150.44;6185195;23;20048;-77
2022/09/26 00:37:39;;;;;;;9.38;7.47;;;;;;;13.57;72.31;96146.19;6185132;23;20040;-78
2022/09/26 00:40:08;;;;;;;10.65;7.85;;;;;;;13.55;72.10;96150.03;6183894;23;20025;-77
2022/09/26 00:42:36;;;;;;;10.77;6.70;;;;;;;13.54;72.54;96146.63;6184921;23;20361;-78
2022/09/26 00:45:05;;;;;;;8.45;7.47;;;;;;;13.55;72.50;96147.44;6184363;23;20080;-77
2022/09/26 00:47:39;;;;;;;9.82;7.68;;;;;;;13.53;72.55;96145.00;6184767;23;20349;-78
2022/09/26 00:50:13;;;;;;;9.55;7.78;;;;;;;13.51;72.39;96141.81;6183997;23;20025;-78
2022/09/26 00:52:44;;;;;;;10.13;8.02;;;;;;;13.49;72.33;96143.84;6184904;23;20021;-77
2022/09/26 00:55:19;;;;;;;11.30;7.88;;;;;;;13.50;73.03;96144.66;6184584;23;20487;-77
2022/09/26 00:57:52;;;;;;;13.20;7.35;;;;;;;13.49;72.49;96141.22;6184253;23;20021;-77
2022/09/26 01:00:20;;;;;;;11.45;8.43;;;;;;;13.47;72.42;96138.00;6183390;23;20044;-78
2022/09/26 01:02:48;;;;;;;8.63;7.30;;;;;;;13.46;72.75;96136.38;6184818;23;20021;-78
2022/09/26 01:05:20;;;;;;;12.68;8.02;;;;;;;13.46;72.87;96128.53;6184521;23;20068;-78
2022/09/26 01:07:49;;;;;;;14.77;8.87;;;;;;;13.44;72.66;96133.19;6184023;23;20028;-77
2022/09/26 01:10:18;;;;;;;13.77;8.38;;;;;;;13.43;72.74;96131.59;6183484;23;20021;-78
2022/09/26 01:12:46;;;;;;;13.93;8.80;;;;;;;13.41;72.70;96131.00;6184611;23;20063;-78
2022/09/26 01:15:14;;;;;;;9.98;8.38;;;;;;;13.38;72.73;96126.16;6184414;23;20032;-78
2022/09/26 01:17:44;;;;;;;12.57;9.00;;;;;;;13.37;73.15;96130.59;6184223;23;20025;-78
2022/09/26 01:20:33;;;;;;;11.65;8.38;;;;;;;13.37;72.89;96127.19;6183653;23;20021;-77
2022/09/26 01:23:34;;;;;;;15.50;9.18;;;;;;;13.36;72.92;96128.22;6184546;23;20096;-77
2022/09/26 01:26:26;;;;;;;15.82;9.18;;;;;;;13.34;73.33;96125.78;6184696;23;20100;-77
2022/09/26 01:29:12;;;;;;;12.60;8.70;;;;;;;13.32;72.56;96121.78;6186221;23;20413;-77
2022/09/26 01:32:47;;;;;;;11.57;8.43;;;;;;;13.29;72.57;96116.94;6185522;23;20107;-77
2022/09/26 01:34:46;;;;;;;13.80;8.93;;;;;;;13.27;72.34;96118.94;6185635;23;20028;-78
2022/09/26 01:37:22;;;;;;;14.73;8.63;;;;;;;13.23;72.14;96121.19;6186230;23;20017;-77
2022/09/26 01:40:01;;;;;;;10.27;8.30;;;;;;;13.20;72.28;96125.00;6186132;23;20028;-78
2022/09/26 01:42:37;;;;;;;13.02;8.55;;;;;;;13.18;72.50;96127.06;6186657;23;20386;-78
2022/09/26 01:45:13;;;;;;;12.32;9.60;;;;;;;13.17;72.44;96125.44;6186221;23;20454;-78
2022/09/26 01:47:46;;;;;;;14.50;8.57;;;;;;;13.17;72.54;96135.91;6186293;23;20025;-77
2022/09/26 01:50:17;;;;;;;;;;;;;;;13.17;72.37;96135.13;6185812;23;20036;-77
2022/09/26 01:52:50;;;;;;;12.85;7.63;;;;;;;13.15;72.48;96137.94;6186479;23;19935;-78
2022/09/26 01:55:24;;;;;;;13.15;8.52;;;;;;;13.14;72.50;96132.91;6190342;23;20070;-78
2022/09/26 01:57:56;;;;;;;13.05;7.65;;;;;;;13.14;72.68;96132.91;6195541;23;20100;-78
2022/09/26 02:00:24;;;;;;;10.48;7.95;;;;;;;13.14;72.67;96133.72;6191757;23;20077;-78
2022/09/26 02:02:56;;;;;;;11.77;7.10;;;;;;;13.14;72.68;96128.50;6187062;23;20021;-78
2022/09/26 02:05:31;;;;;;;8.95;6.82;;;;;;;13.13;72.82;96129.50;6185992;23;20040;-78
2022/09/26 02:08:04;;;;;;;9.85;7.28;;;;;;;13.12;72.55;96138.38;6180437;23;20028;-76
2022/09/26 02:10:36;;;;;;;10.80;7.30;;;;;;;13.11;72.43;96141.19;6184720;23;20025;-76
2022/09/26 02:13:09;;;;;;;12.07;7.82;;;;;;;13.10;72.15;96139.59;6184589;23;20426;-76
2022/09/26 02:15:39;;;;;;;12.75;7.20;;;;;;;13.07;72.15;96132.13;6185108;23;20027;-76
2022/09/26 02:18:13;;;;;;;8.88;6.97;;;;;;;13.07;72.34;96137.38;6185651;23;20049;-76
2022/09/26 02:20:46;;;;;;;9.73;7.28;;;;;;;13.06;71.98;96139.19;6186060;23;20511;-76
2022/09/26 02:23:14;;;;;;;8.65;7.15;;;;;;;13.04;71.44;96135.19;6186844;23;20025;-76
2022/09/26 02:25:41;;;;;;;6.68;6.00;;;;;;;13.01;71.82;96131.19;6185423;23;20483;-76
2022/09/26 02:28:09;;;;;;;11.73;6.40;;;;;;;13.02;71.55;96132.78;6184908;23;20480;-76
2022/09/26 02:30:38;;;;;;;9.40;6.82;;;;;;;13.01;71.48;96136.41;6184094;23;20356;-76
2022/09/26 02:33:05;;;;;;;11.35;6.53;;;;;;;13.02;71.27;96134.59;6184973;23;20033;-76
2022/09/26 02:38:20;;;;;;;12.27;7.13;;;;;;;12.96;70.75;96137.00;6184725;23;20108;-76
2022/09/26 02:40:51;;;;;;;7.43;6.32;;;;;;;12.95;70.81;96132.00;6184120;23;20301;-77
2022/09/26 02:43:40;;;;;;;10.07;7.30;;;;;;;12.94;70.83;96135.63;6185061;23;20024;-76
2022/09/26 02:46:27;;;;;;;10.25;6.82;;;;;;;12.91;70.61;96136.84;6185383;23;20028;-76
2022/09/26 02:49:14;;;;;;;8.48;6.85;;;;;;;12.89;70.34;96138.06;6185326;23;20059;-77
2022/09/26 02:51:59;;;;;;;8.63;6.60;;;;;;;12.87;70.23;96132.22;6184382;23;20044;-76
2022/09/26 02:54:34;;;;;;;7.80;6.43;;;;;;;12.85;70.45;96126.41;6185014;23;20454;-76
2022/09/26 02:57:21;;;;;;;8.82;6.05;;;;;;;12.83;70.75;96123.19;6185150;23;20029;-76
2022/09/26 02:59:58;;;;;;;8.98;6.60;;;;;;;12.84;70.52;96122.19;6185358;23;20029;-76
2022/09/26 03:02:34;;;;;;;8.25;6.20;;;;;;;12.84;71.39;96119.56;6185117;23;20028;-76
2022/09/26 03:05:06;;;;;;;9.13;5.75;;;;;;;12.84;71.56;96116.94;6185441;23;20021;-76
2022/09/26 03:07:41;;;;;;;6.93;6.22;;;;;;;12.84;71.20;96125.59;6185195;23;20025;-76
2022/09/26 03:10:11;;;;;;;10.00;7.05;;;;;;;12.83;70.72;96118.75;6184397;23;20357;-76
2022/09/26 03:12:41;;;;;;;8.57;6.85;;;;;;;12.81;70.69;96120.75;6185135;23;20025;-76
2022/09/26 03:15:10;;;;;;;7.28;5.93;;;;;;;12.81;70.66;96119.97;6185117;23;20031;-76
2022/09/26 03:17:41;;;;;;;7.25;6.10;;;;;;;12.80;70.35;96113.13;6184845;23;20027;-76
2022/09/26 03:20:13;;;;;;;10.00;6.10;;;;;;;12.81;70.51;96122.59;6184186;23;20036;-76
2022/09/26 03:22:44;;;;;;;7.20;5.88;;;;;;;12.79;70.49;96112.34;6185001;23;20017;-77
2022/09/26 03:25:17;;;;;;;6.95;5.03;;;;;;;12.78;71.08;96103.66;6184921;23;20051;-76
2022/09/26 03:27:46;;;;;;;12.15;5.88;;;;;;;12.77;70.94;96112.53;6184981;23;20052;-76
2022/09/26 03:30:15;;;;;;;10.05;6.25;;;;;;;12.77;70.96;96112.53;6183611;23;20032;-76
2022/09/26 03:32:43;;;;;;;7.00;5.72;;;;;;;12.78;70.19;96105.47;6189503;23;20036;-76
2022/09/26 03:35:10;;;;;;;7.03;5.78;;;;;;;12.76;70.04;96097.84;6197539;23;20036;-76
2022/09/26 03:37:38;;;;;;;10.38;6.00;;;;;;;12.76;70.28;96092.59;6195551;23;20040;-76
2022/09/26 03:40:10;;;;;;;9.18;6.30;;;;;;;12.77;70.12;96088.97;6184541;23;20028;-76
2022/09/26 03:42:38;;;;;;;7.63;5.50;;;;;;;12.77;70.10;96085.56;6185317;23;20028;-76
2022/09/26 03:45:09;;;;;;;6.70;5.63;;;;;;;12.76;70.32;96081.31;6185199;23;20369;-76
2022/09/26 03:47:37;;;;;;;6.13;5.35;;;;;;;12.77;70.80;96073.28;6184791;23;20021;-76
2022/09/26 03:50:06;;;;;;;10.52;6.97;;;;;;;12.75;70.06;96075.31;6183472;23;20039;-75
2022/09/26 03:52:35;;;;;;;10.15;6.13;;;;;;;12.73;69.90;96071.28;6184858;23;20103;-76
2022/09/26 03:55:03;;;;;;;9.02;6.30;;;;;;;12.72;70.58;96069.66;6184082;23;20021;-76
2022/09/26 03:57:31;;;;;;;7.97;5.45;;;;;;;12.72;71.00;96073.09;6184674;23;20024;-76
2022/09/26 03:59:59;;;;;;;7.38;5.97;;;;;;;12.72;70.74;96062.63;6184069;23;20021;-76
2022/09/26 04:02:27;;;;;;;9.07;5.72;;;;;;;12.73;70.86;96063.44;6184809;23;20096;-76
2022/09/26 04:04:54;;;;;;;8.88;7.10;;;;;;;12.75;70.54;96053.56;6188569;23;20073;-76
2022/09/26 04:07:22;;;;;;;8.15;6.38;;;;;;;12.73;70.41;96048.53;6197274;23;20017;-76
2022/09/26 04:09:50;;;;;;;8.02;6.20;;;;;;;12.73;70.14;96051.16;6191827;23;20107;-76
2022/09/26 04:12:17;;;;;;;8.15;6.03;;;;;;;12.71;70.08;96045.31;6184023;23;20105;-75
2022/09/26 04:14:46;;;;;;;7.30;5.97;;;;;;;12.71;70.46;96041.91;6184730;23;20024;-75
2022/09/26 04:17:14;;;;;;;9.35;5.38;;;;;;;12.71;70.07;96047.13;6183999;23;20021;-76
2022/09/26 04:19:41;;;;;;;8.85;6.72;;;;;;;12.69;69.75;96044.72;6184456;23;20402;-75
2022/09/26 04:22:09;;;;;;;6.30;5.45;;;;;;;12.70;70.00;96046.34;6183779;23;20021;-75
2022/09/26 04:24:36;;;;;;;7.43;6.35;;;;;;;12.71;70.24;96041.91;6184492;23;20021;-76
2022/09/26 04:27:07;;;;;;;9.55;5.35;;;;;;;12.71;70.51;96032.22;6184160;23;20088;-76
2022/09/26 04:29:34;;;;;;;9.98;5.70;;;;;;;12.72;70.49;96031.22;6184116;23;20025;-76
2022/09/26 04:32:03;;;;;;;10.07;6.53;;;;;;;12.71;70.04;96034.06;6183573;23;20107;-76
2022/09/26 04:34:31;;;;;;;8.82;6.15;;;;;;;12.70;71.06;96030.66;6184043;23;20052;-76
2022/09/26 04:36:59;;;;;;;8.25;6.22;;;;;;;12.69;70.93;96029.03;6184149;23;20024;-75
2022/09/26 04:39:26;;;;;;;6.70;5.95;;;;;;;12.69;70.50;96023.00;6184267;23;20465;-76
2022/09/26 04:41:54;;;;;;;10.00;7.10;;;;;;;12.66;70.66;96024.22;6183636;23;20056;-76
2022/09/26 04:44:21;;;;;;;9.20;6.97;;;;;;;12.66;71.13;96021.59;6184794;23;20027;-76
2022/09/26 04:46:49;;;;;;;10.07;6.88;;;;;;;12.66;71.33;96021.59;6184954;23;20024;-76
2022/09/26 04:49:18;;;;;;;11.00;7.35;;;;;;;12.66;71.09;96020.78;6184241;23;20061;-76
2022/09/26 04:51:46;;;;;;;7.75;6.85;;;;;;;12.65;70.87;96014.75;6183254;23;20055;-75
2022/09/26 04:54:15;;;;;;;12.93;8.13;;;;;;;12.65;70.79;96022.59;6183756;23;20027;-75
2022/09/26 04:56:43;;;;;;;11.35;7.78;;;;;;;12.63;70.53;96022.00;6184044;23;20021;-76
2022/09/26 04:59:10;;;;;;;10.98;7.93;;;;;;;12.63;71.01;96016.78;6183876;23;20029;-75
2022/09/26 05:01:38;;;;;;;11.45;8.13;;;;;;;12.63;71.35;96008.13;6183764;23;20021;-76
2022/09/26 05:04:07;;;;;;;15.80;8.73;;;;;;;12.63;71.01;96008.91;6185710;23;20103;-76
2022/09/26 05:06:35;;;;;;;10.27;7.57;;;;;;;12.62;71.33;96009.94;6186582;23;20071;-76
2022/09/26 05:09:04;;;;;;;12.23;8.38;;;;;;;12.61;71.01;96010.16;6185812;23;20031;-75
2022/09/26 05:11:32;;;;;;;23.90;15.55;;;;;;;12.61;71.22;96018.00;6185198;23;20052;-75
2022/09/26 05:14:01;;;;;;;23.50;15.02;;;;;;;12.60;71.42;96008.56;6186378;23;20091;-77
2022/09/26 05:16:28;;;;;;;11.13;7.95;;;;;;;12.59;71.52;96012.97;6185626;23;20017;-74
2022/09/26 05:18:56;;;;;;;10.02;8.00;;;;;;;12.58;71.34;96000.91;6185593;23;20493;-75
2022/09/26 05:21:23;;;;;;;11.43;8.35;;;;;;;12.58;71.41;96006.13;6184725;23;20021;-75
2022/09/26 05:26:41;;;;;;;10.20;6.65;;;;;;;12.58;71.60;96011.38;6185510;23;20354;-74
2022/09/26 05:29:10;;;;;;;8.73;6.50;;;;;;;12.57;71.36;96005.34;6185335;23;20350;-74
2022/09/26 05:31:38;;;;;;;9.20;6.90;;;;;;;12.57;71.38;96007.13;6184784;23;20097;-76
2022/09/26 05:34:09;;;;;;;8.25;6.35;;;;;;;12.57;71.91;96014.97;6185851;23;20075;-75
2022/09/26 05:36:42;;;;;;;8.93;6.85;;;;;;;12.56;71.54;96008.16;6185822;23;20404;-76
2022/09/26 05:41:52;;;;;;;;;;;;;;;12.53;71.61;96006.75;6183049;23;20035;-75
2022/09/26 05:44:20;;;;;;;7.82;6.00;;;;;;;12.48;71.13;96003.16;6185561;23;19922;-76
2022/09/26 05:46:49;;;;;;;9.35;6.15;;;;;;;12.47;71.25;96002.34;6186608;23;20017;-78
2022/09/26 05:49:16;;;;;;;8.13;6.57;;;;;;;12.46;71.66;96002.56;6189202;22;20021;-79
2022/09/26 05:51:45;;;;;;;9.05;6.50;;;;;;;12.45;71.47;95999.16;6185485;23;20025;-75
2022/09/26 05:54:14;;;;;;;9.15;5.57;;;;;;;12.45;71.91;96003.59;6183500;23;20024;-76
2022/09/26 05:56:42;;;;;;;8.50;6.10;;;;;;;12.44;71.51;96004.56;6179981;23;20354;-75
2022/09/26 05:59:09;;;;;;;7.90;6.28;;;;;;;12.45;71.79;96006.19;6181693;23;20025;-75
2022/09/26 06:01:37;;;;;;;8.00;7.20;;;;;;;12.43;71.16;96006.41;6164347;23;20036;-75
2022/09/26 06:04:05;;;;;;;10.48;6.13;;;;;;;12.43;71.70;96000.38;6160175;23;20408;-75
2022/09/26 06:06:33;;;;;;;10.57;7.95;;;;;;;12.42;71.13;95996.13;6136278;23;20021;-74
2022/09/26 06:09:02;;;;;;;10.60;6.30;;;;;;;12.43;71.35;95992.53;6146733;23;20029;-76
2022/09/26 06:11:30;;;;;;;8.43;6.88;;;;;;;12.46;71.43;95994.72;6181481;23;20484;-74
2022/09/26 06:13:59;;;;;;;10.95;7.32;;;;;;;12.48;71.52;95995.31;6184886;23;20021;-75
2022/09/26 06:16:28;;;;;;;12.48;7.53;;;;;;;12.52;70.91;95991.25;6185016;23;20075;-75
2022/09/26 06:18:56;;;;;;;8.63;6.03;;;;;;;12.55;71.00;95996.06;6184354;23;20020;-75
2022/09/26 06:21:24;;;;;;;7.30;5.60;;;;;;;12.56;70.84;95997.69;6183483;23;20017;-75
2022/09/26 06:23:51;;;;;;;7.93;5.65;;;;;;;12.58;70.87;95993.06;6185083;23;20021;-74
2022/09/26 06:26:21;;;;;;;9.93;6.15;;;;;;;12.61;70.83;95994.44;6186261;23;20480;-75
2022/09/26 06:28:54;;;;;;;7.85;5.50;;;;;;;12.63;71.34;95993.22;6187662;23;20025;-74
2022/09/26 06:31:22;;;;;;;;;;;;;;;12.65;71.68;95996.44;6186275;23;20021;-75
2022/09/26 06:33:52;;;;;;;9.60;7.00;;;;;;;12.67;70.91;95991.00;6189741;23;19924;-75
2022/09/26 06:36:20;;;;;;;9.15;5.97;;;;;;;12.68;71.53;95988.19;6188346;23;20040;-74
2022/09/26 06:38:48;;;;;;;6.30;5.40;;;;;;;12.71;71.59;95992.97;6186895;23;20027;-76
2022/09/26 06:41:16;;;;;;;8.88;6.30;;;;;;;12.73;71.27;95990.16;6187216;23;20100;-76
2022/09/26 06:43:44;;;;;;;6.57;5.60;;;;;;;12.78;71.40;95985.88;6188145;23;20024;-77
2022/09/26 06:46:14;;;;;;;8.52;5.18;;;;;;;12.82;70.81;95982.88;6189164;23;20096;-76
2022/09/26 06:48:42;;;;;;;8.35;5.55;;;;;;;12.85;70.89;95979.81;6185850;23;20075;-76
2022/09/26 06:51:12;;;;;;;9.30;5.82;;;;;;;12.91;70.30;95976.34;6195557;23;20024;-76
2022/09/26 06:53:41;;;;;;;9.65;5.68;;;;;;;12.98;69.87;95977.09;6197658;23;20051;-75
2022/09/26 06:56:08;;;;;;;7.22;4.80;;;;;;;13.03;69.57;95972.06;6185537;23;20105;-76
2022/09/26 06:58:36;;;;;;;6.47;4.60;;;;;;;13.07;69.73;95970.59;6185812;23;20021;-76
2022/09/26 07:01:05;;;;;;;7.57;5.00;;;;;;;13.11;68.92;95973.59;6184529;23;20104;-76
2022/09/26 07:03:34;;;;;;;8.50;5.25;;;;;;;13.13;68.36;95971.56;6185414;23;20021;-76
2022/09/26 07:06:03;;;;;;;9.68;4.82;;;;;;;13.17;69.22;95965.69;6185545;23;20083;-77
2022/09/26 07:08:30;;;;;;;7.10;3.80;;;;;;;13.24;69.03;95972.69;6184860;23;20052;-77
2022/09/26 07:11:18;;;;;;;9.60;5.00;;;;;;;13.26;68.09;95963.63;6183901;23;20025;-76
2022/09/26 07:14:06;;;;;;;6.93;4.57;;;;;;;13.35;68.21;95961.56;6185207;23;20346;-77
2022/09/26 07:16:34;;;;;;;7.20;3.78;;;;;;;13.41;68.53;95965.94;6185147;23;20025;-77
2022/09/26 07:19:03;;;;;;;3.75;3.33;;;;;;;13.43;67.51;95963.91;6185186;23;20041;-76
2022/09/26 07:21:31;;;;;;;5.38;3.28;;;;;;;13.45;67.74;95964.50;6183542;23;20360;-76
2022/09/26 07:23:58;;;;;;;5.95;3.35;;;;;;;13.47;67.00;95965.09;6184486;23;20048;-77
2022/09/26 07:26:26;;;;;;;7.00;3.70;;;;;;;13.50;66.50;95956.00;6184825;23;20025;-76
2022/09/26 07:28:53;;;;;;;3.55;2.63;;;;;;;13.52;67.23;95953.97;6184167;23;20017;-78
2022/09/26 07:31:22;;;;;;;3.15;2.50;;;;;;;13.55;67.53;95954.31;6185766;23;20053;-78
2022/09/26 07:33:50;;;;;;;5.18;3.17;;;;;;;13.60;67.56;95951.88;6184003;23;20021;-77
2022/09/26 07:36:19;;;;;;;5.43;2.80;;;;;;;13.66;66.73;95952.81;6184038;23;20024;-76
2022/09/26 07:38:48;;;;;;;4.30;3.20;;;;;;;13.67;65.84;95951.00;6183481;23;20052;-77
2022/09/26 07:41:16;;;;;;;5.13;2.67;;;;;;;13.69;66.38;95951.59;6183156;23;20087;-76
2022/09/26 07:43:43;;;;;;;3.70;2.63;;;;;;;13.71;66.01;95941.66;6184602;23;20104;-77
2022/09/26 07:52:11;;;;;;;4.63;3.35;;;;;;;13.73;65.73;95947.50;6183492;23;20025;-77
2022/09/26 07:54:38;;;;;;;7.80;3.80;;;;;;;13.72;65.14;95943.28;6184392;23;20056;-77
2022/09/26 07:57:06;;;;;;;6.07;3.55;;;;;;;13.72;66.05;95946.69;6184079;23;20029;-77
2022/09/26 07:59:34;;;;;;;5.72;2.85;;;;;;;13.74;65.46;95947.28;6185293;23;20078;-76
2022/09/26 08:02:02;;;;;;;4.88;2.90;;;;;;;13.77;65.74;95940.78;6183526;23;20021;-78
2022/09/26 08:04:30;;;;;;;5.28;2.90;;;;;;;13.81;65.08;95939.34;6184254;23;20055;-76
2022/09/26 08:06:58;;;;;;;6.55;3.22;;;;;;;13.85;65.37;95940.53;6183278;23;20033;-77
2022/09/26 08:09:27;;;;;;;6.72;4.13;;;;;;;13.87;64.07;95940.31;6192407;23;20084;-83
2022/09/26 08:11:55;;;;;;;7.50;3.58;;;;;;;13.88;65.40;95942.69;6198529;23;20047;-82
2022/09/26 08:14:22;;;;;;;5.70;2.92;;;;;;;13.95;64.81;95943.44;6198007;23;20028;-81
2022/09/26 08:16:55;;;;;;;3.55;2.60;;;;;;;14.01;65.52;95942.56;6199570;23;20040;-80
2022/09/26 08:19:23;;;;;;;5.95;3.85;;;;;;;14.09;63.94;95938.84;6200266;23;20028;-82
2022/09/26 08:21:50;;;;;;;4.60;2.88;;;;;;;14.14;63.02;95943.41;6198700;23;20024;-82
2022/09/26 08:24:18;;;;;;;6.20;2.53;;;;;;;14.17;62.57;95935.13;6193033;23;20040;-78
2022/09/26 08:26:47;;;;;;;6.22;2.30;;;;;;;14.19;62.54;95943.53;6194827;23;20405;-82
2022/09/26 08:29:15;;;;;;;5.90;2.38;;;;;;;14.22;62.42;95936.06;6195262;23;20024;-80
2022/09/26 08:31:44;;;;;;;6.43;2.80;;;;;;;14.27;63.11;95937.22;6193375;23;20017;-82
2022/09/26 08:34:12;;;;;;;3.60;2.30;;;;;;;14.32;63.10;95932.91;6193148;23;20021;-81
2022/09/26 08:36:40;;;;;;;6.00;2.38;;;;;;;14.38;62.92;95937.25;6193754;23;20103;-79
2022/09/26 08:39:09;;;;;;;7.78;2.65;;;;;;;14.50;62.48;95933.91;6196777;23;20048;-83
2022/09/26 08:42:08;;;;;;;4.20;2.42;;;;;;;14.61;62.09;95941.84;6197377;23;20017;-82
2022/09/26 08:44:55;;;;;;;7.90;3.42;;;;;;;14.71;62.50;95936.03;6187734;23;20071;-82
2022/09/26 08:47:35;;;;;;;4.13;2.67;;;;;;;14.78;60.21;95936.75;6193084;23;20092;-81
2022/09/26 08:50:14;;;;;;;3.40;2.08;;;;;;;14.80;60.15;95934.72;6193748;23;20023;-88
2022/09/26 08:52:51;;;;;;;4.50;2.20;;;;;;;14.83;58.97;95929.00;6200677;23;20017;-82
2022/09/26 08:55:36;;;;;;;3.08;1.70;;;;;;;14.85;59.03;95928.78;6198919;23;20013;-81
2022/09/26 08:58:14;;;;;;;2.95;2.10;;;;;;;14.83;58.27;95929.00;6206786;22;20052;-86
2022/09/26 09:00:46;;;;;;;2.83;1.58;;;;;;;14.83;58.15;95925.59;6201264;23;20079;-89
2022/09/26 09:03:24;;;;;;;2.72;1.65;;;;;;;14.81;58.02;95920.56;6202276;23;20021;-85
2022/09/26 09:06:00;;;;;;;5.47;1.63;;;;;;;14.79;57.79;95914.72;6202477;23;20380;-83
2022/09/26 09:08:35;;;;;;;4.47;1.60;;;;;;;14.78;57.15;95905.25;6203859;23;20021;-83
2022/09/26 09:11:15;;;;;;;4.97;1.50;;;;;;;14.74;56.97;95898.84;6202061;23;20049;-85
2022/09/26 09:14:08;;;;;;;4.38;1.23;;;;;;;14.75;57.29;95895.19;6202505;23;20001;-86
2022/09/26 09:16:59;;;;;;;5.20;1.70;;;;;;;14.73;56.99;95897.25;6201547;23;20048;-85
2022/09/26 09:19:43;;;;;;;2.70;1.40;;;;;;;14.74;56.78;95901.47;6206363;23;20619;-84
2022/09/26 09:22:30;;;;;;;2.35;1.08;;;;;;;14.77;57.97;95887.88;6207405;23;20020;-83
2022/09/26 09:25:24;;;;;;;3.80;1.27;;;;;;;14.82;56.66;95881.97;6205525;22;20408;-86
2022/09/26 09:28:03;;;;;;;;;;;;;;;14.91;57.73;95890.31;6200635;22;20017;-83
2022/09/26 09:30:42;;;;;;;4.55;1.63;;;;;;;15.00;58.39;95886.34;6200108;23;19916;-84
2022/09/26 09:33:18;;;;;;;1.80;1.20;;;;;;;15.09;57.53;95887.59;6199007;23;20065;-79
2022/09/26 09:35:59;;;;;;;4.25;1.00;;;;;;;15.14;55.67;95892.19;6194824;23;20036;-84
2022/09/26 09:38:30;;;;;;;3.92;1.40;;;;;;;15.20;56.24;95889.44;6196323;23;20025;-85
2022/09/26 09:41:15;;;;;;;4.10;1.02;;;;;;;15.24;55.82;95890.59;6197719;23;20449;-85
2022/09/26 09:43:59;;;;;;;4.30;1.45;;;;;;;15.33;56.89;95893.66;6197046;23;20044;-86
2022/09/26 09:46:43;;;;;;;4.55;1.50;;;;;;;15.40;55.27;95896.19;6202643;23;20017;-90
2022/09/26 09:49:29;;;;;;;4.88;1.50;;;;;;;15.49;56.86;95881.66;6205522;23;20021;-88
2022/09/26 09:52:10;;;;;;;2.13;1.23;;;;;;;15.64;55.77;95889.06;6203769;23;20068;-90
2022/09/26 09:55:02;;;;;;;2.75;1.02;;;;;;;15.78;54.70;95887.81;6203876;23;20017;-90
2022/09/26 09:58:08;;;;;;;2.75;1.20;;;;;;;15.93;54.56;95874.16;6205335;22;20096;-88
2022/09/26 10:00:50;;;;;;;2.03;1.00;;;;;;;16.06;55.33;95871.25;6190707;23;20461;-87
2022/09/26 10:03:26;;;;;;;3.70;1.30;;;;;;;16.26;53.67;95872.69;6194465;23;20089;-88
2022/09/26 10:05:58;;;;;;;2.67;0.88;;;;;;;16.44;53.75;95867.25;6195897;23;20056;-87
2022/09/26 10:08:30;;;;;;;1.45;0.80;;;;;;;16.65;52.24;95859.69;6195393;23;20017;-87
2022/09/26 10:11:07;;;;;;;;;;;;;;;16.81;52.80;95864.19;6198338;23;20115;-88
2022/09/26 10:13:37;;;;;;;1.90;1.25;;;;;;;16.95;52.67;95863.88;6198386;23;19916;-90
2022/09/26 10:16:14;;;;;;;2.70;1.27;;;;;;;17.03;49.53;95860.81;6193453;23;20039;-85
2022/09/26 10:19:05;;;;;;;3.85;1.20;;;;;;;17.11;49.48;95862.28;6192358;23;20535;-87
2022/09/26 10:21:46;;;;;;;1.75;1.17;;;;;;;17.16;50.10;95860.50;6192608;23;20021;-79
2022/09/26 10:24:23;;;;;;;1.52;1.05;;;;;;;17.21;49.59;95855.31;6193909;23;20087;-84
2022/09/26 10:26:51;;;;;;;3.58;1.20;;;;;;;17.21;48.75;95859.81;6193189;23;20039;-81
2022/09/26 10:29:23;;;;;;;5.10;1.48;;;;;;;17.18;47.33;95858.41;6192112;23;20017;-85
2022/09/26 10:31:55;;;;;;;;;;;;;;;17.17;48.49;95848.13;6193131;23;20040;-82
2022/09/26 10:34:27;;;;;;;4.55;1.17;;;;;;;17.12;47.83;95854.13;6194246;23;19920;-81
2022/09/26 10:36:55;;;;;;;2.15;1.35;;;;;;;17.13;48.39;95849.66;6193205;23;20023;-83
2022/09/26 10:42:17;;;;;;;4.15;1.50;;;;;;;17.09;48.49;95844.06;6192338;23;20031;-88
2022/09/26 10:44:49;;;;;;;2.40;1.40;;;;;;;17.12;48.25;95843.59;6194105;23;20024;-89
2022/09/26 10:47:23;;;;;;;5.00;1.30;;;;;;;17.18;48.56;95839.97;6198619;23;20021;-86
2022/09/26 10:49:58;;;;;;;4.05;0.98;;;;;;;17.25;47.56;95837.97;6195579;23;20025;-86
2022/09/26 10:52:30;;;;;;;5.20;1.30;;;;;;;17.34;48.53;95840.19;6194852;23;20024;-85
2022/09/26 10:55:03;;;;;;;4.72;1.10;;;;;;;17.42;48.47;95831.88;6194016;23;20056;-88
2022/09/26 10:57:38;;;;;;;5.18;1.40;;;;;;;17.53;46.68;95838.06;6193891;23;20359;-85
2022/09/26 11:00:07;;;;;;;1.38;0.75;;;;;;;17.63;47.09;95833.72;6193755;23;20064;-81
2022/09/26 11:02:36;;;;;;;2.90;1.10;;;;;;;17.71;46.98;95832.50;6195767;23;20021;-83
2022/09/26 11:07:56;;;;;;;2.30;1.05;;;;;;;17.83;44.88;95827.13;6158278;23;20420;-84
2022/09/26 11:10:31;;;;;;;4.32;1.20;;;;;;;17.89;45.40;95823.50;6201138;23;20040;-83
2022/09/26 11:13:02;;;;;;;1.67;1.00;;;;;;;17.98;45.34;95815.97;6206404;23;20403;-84
2022/09/26 11:15:31;;;;;;;1.48;0.80;;;;;;;18.06;45.25;95810.22;6202670;23;20366;-84
2022/09/26 11:17:59;;;;;;;3.20;0.90;;;;;;;18.11;44.95;95797.88;6197862;23;20017;-82
2022/09/26 11:20:39;;;;;;;1.05;0.70;;;;;;;18.35;44.17;95802.06;6197796;23;20023;-82
2022/09/26 11:23:16;;;;;;;1.25;0.68;;;;;;;18.66;44.66;95792.56;6198112;23;20044;-84
2022/09/26 11:25:54;;;;;;;3.20;0.80;;;;;;;18.98;41.64;95779.34;6196440;23;20036;-83
2022/09/26 11:28:30;;;;;;;1.63;0.82;;;;;;;19.40;41.99;95780.34;6197969;23;20021;-82
2022/09/26 11:31:03;;;;;;;2.38;1.00;;;;;;;19.92;40.26;95782.16;6197526;23;20025;-84
2022/09/26 11:33:32;;;;;;;2.40;0.75;;;;;;;20.51;39.91;95776.41;6198987;23;20028;-82
2022/09/26 11:36:23;;;;;;;1.50;0.85;;;;;;;21.19;38.53;95767.34;6196425;23;20097;-83
2022/09/26 11:39:01;;;;;;;1.65;0.60;;;;;;;21.86;37.77;95775.88;6201104;23;20051;-87
2022/09/26 11:42:00;;;;;;;1.67;0.52;;;;;;;22.58;36.65;95768.25;6199013;23;20013;-88
2022/09/26 11:48:15;;;;;;;5.55;0.80;;;;;;;23.62;33.61;95752.88;6199218;23;20075;-84
2022/09/26 11:50:55;;;;;;;1.38;0.68;;;;;;;23.90;32.86;95740.53;6197155;23;20025;-84
2022/09/26 11:53:49;;;;;;;2.92;0.60;;;;;;;24.26;32.34;95727.47;6195612;23;20048;-83
2022/09/26 11:56:46;;;;;;;1.77;0.57;;;;;;;24.40;31.47;95729.41;6197474;23;20052;-83
2022/09/26 11:59:31;;;;;;;0.50;0.40;;;;;;;24.39;31.27;95717.16;6197146;23;20032;-84
2022/09/26 12:02:22;;;;;;;1.88;0.32;;;;;;;24.25;31.33;95722.47;6197255;23;20031;-84
2022/09/26 12:05:03;;;;;;;0.67;0.40;;;;;;;24.06;30.18;95715.25;6200154;23;20032;-84
2022/09/26 12:07:42;;;;;;;1.90;0.40;;;;;;;23.85;30.74;95704.13;6201133;23;20235;-82
2022/09/26 12:10:25;;;;;;;1.98;0.40;;;;;;;23.64;31.56;95694.81;6200345;23;20025;-83
2022/09/26 12:13:11;;;;;;;0.88;0.20;;;;;;;23.35;30.24;95703.69;6200097;23;20077;-85
2022/09/26 12:15:47;;;;;;;1.52;0.52;;;;;;;23.00;30.87;95692.38;6200242;23;20024;-87
2022/09/26 12:18:25;;;;;;;3.15;0.35;;;;;;;22.73;31.81;95692.09;6197529;23;20045;-86
2022/09/26 12:21:04;;;;;;;1.10;0.30;;;;;;;22.45;32.17;95691.81;6195592;23;20035;-85